Terminal Aerodrome Forecast
Issued by NWS Sterling, VA

Current Version | Previous Version | Graphics & Text | Print | Product List | Glossary On
Versions: 1 2 3 4 5 6 7 8 9 10 11 12 13 14 15 16 17 18 19 20 21 22 23 24
342
FTUS41 KLWX 170855 AAA
TAFIAD
TAF AMD
KIAD 170855Z 1709/1812 00000KT P6SM SCT080
     FM171100 00000KT 3SM BR BKN010
     FM171500 06004KT P6SM BKN250
     FM180600 00000KT 3SM BR FEW040
     FM180900 VRB03KT 2SM BR SCT040
     FM181100 03004KT 2SM BR BKN035=

USA.gov is the U.S. government's official web portal to all federal, state and local government web resources and services.